sensor_id;sensor_type;location;lat;lon;timestamp;pressure;altitude;pressure_sealevel;temperature;humidity
34081;BME280;20358;50.272;19.026;2022-07-23T00:00:42;98294.09;;;22.85;55.23
34081;BME280;20358;50.272;19.026;2022-07-23T00:04:30;98306.41;;;22.78;55.47
34081;BME280;20358;50.272;19.026;2022-07-23T00:07:37;98311.06;;;22.76;56.06
34081;BME280;20358;50.272;19.026;2022-07-23T00:10:42;98307.06;;;22.72;56.14
34081;BME280;20358;50.272;19.026;2022-07-23T00:13:49;98309.50;;;22.65;56.24
34081;BME280;20358;50.272;19.026;2022-07-23T00:16:59;98304.94;;;22.57;56.33
34081;BME280;20358;50.272;19.026;2022-07-23T00:20:07;98317.94;;;22.52;56.53
34081;BME280;20358;50.272;19.026;2022-07-23T00:23:13;98308.59;;;22.48;56.31
34081;BME280;20358;50.272;19.026;2022-07-23T00:26:19;98309.91;;;22.44;56.61
34081;BME280;20358;50.272;19.026;2022-07-23T00:29:25;98305.88;;;22.40;57.14
34081;BME280;20358;50.272;19.026;2022-07-23T00:32:44;98304.38;;;22.38;57.23
34081;BME280;20358;50.272;19.026;2022-07-23T00:35:57;98311.19;;;22.32;57.04
34081;BME280;20358;50.272;19.026;2022-07-23T00:39:04;98301.13;;;22.26;57.05
34081;BME280;20358;50.272;19.026;2022-07-23T00:42:10;98300.09;;;22.19;57.19
34081;BME280;20358;50.272;19.026;2022-07-23T00:45:17;98302.94;;;22.18;56.84
34081;BME280;20358;50.272;19.026;2022-07-23T00:48:25;98296.09;;;22.23;56.81
34081;BME280;20358;50.272;19.026;2022-07-23T00:51:32;98304.59;;;22.19;57.05
34081;BME280;20358;50.272;19.026;2022-07-23T00:54:38;98312.22;;;22.14;56.71
34081;BME280;20358;50.272;19.026;2022-07-23T00:57:45;98306.22;;;22.12;56.55
34081;BME280;20358;50.272;19.026;2022-07-23T01:00:51;98316.66;;;22.05;56.41
34081;BME280;20358;50.272;19.026;2022-07-23T01:04:01;98310.16;;;21.99;57.18
34081;BME280;20358;50.272;19.026;2022-07-23T01:07:07;98313.56;;;21.92;57.45
34081;BME280;20358;50.272;19.026;2022-07-23T01:10:13;98308.00;;;21.85;57.36
34081;BME280;20358;50.272;19.026;2022-07-23T01:13:40;98308.63;;;21.79;57.78
34081;BME280;20358;50.272;19.026;2022-07-23T01:16:48;98317.09;;;21.75;58.04
34081;BME280;20358;50.272;19.026;2022-07-23T01:19:57;98312.91;;;21.72;57.95
34081;BME280;20358;50.272;19.026;2022-07-23T01:23:08;98313.38;;;21.68;58.12
34081;BME280;20358;50.272;19.026;2022-07-23T01:26:19;98307.66;;;21.63;58.62
34081;BME280;20358;50.272;19.026;2022-07-23T01:29:26;98302.94;;;21.57;58.57
34081;BME280;20358;50.272;19.026;2022-07-23T01:32:35;98299.22;;;21.50;58.93
34081;BME280;20358;50.272;19.026;2022-07-23T01:35:42;98301.34;;;21.46;59.23
34081;BME280;20358;50.272;19.026;2022-07-23T01:38:56;98312.31;;;21.43;59.26
34081;BME280;20358;50.272;19.026;2022-07-23T01:42:03;98304.66;;;21.40;59.53
34081;BME280;20358;50.272;19.026;2022-07-23T01:45:10;98309.44;;;21.36;59.50
34081;BME280;20358;50.272;19.026;2022-07-23T01:48:21;98315.38;;;21.30;59.59
34081;BME280;20358;50.272;19.026;2022-07-23T01:52:05;98313.31;;;21.24;59.94
34081;BME280;20358;50.272;19.026;2022-07-23T01:55:27;98312.47;;;21.24;60.00
34081;BME280;20358;50.272;19.026;2022-07-23T01:58:32;98305.72;;;21.20;60.05
34081;BME280;20358;50.272;19.026;2022-07-23T02:01:39;98304.38;;;21.16;60.47
34081;BME280;20358;50.272;19.026;2022-07-23T02:04:45;98307.50;;;21.11;60.27
34081;BME280;20358;50.272;19.026;2022-07-23T02:07:53;98306.09;;;21.07;60.29
34081;BME280;20358;50.272;19.026;2022-07-23T02:11:01;98305.59;;;21.04;60.59
34081;BME280;20358;50.272;19.026;2022-07-23T02:14:08;98304.19;;;21.00;60.70
34081;BME280;20358;50.272;19.026;2022-07-23T02:17:14;98307.31;;;20.95;61.11
34081;BME280;20358;50.272;19.026;2022-07-23T02:20:21;98303.97;;;20.93;61.04
34081;BME280;20358;50.272;19.026;2022-07-23T02:23:27;98308.75;;;20.90;61.15
34081;BME280;20358;50.272;19.026;2022-07-23T02:26:36;98309.88;;;20.87;61.12
34081;BME280;20358;50.272;19.026;2022-07-23T02:29:42;98304.84;;;20.84;61.40
34081;BME280;20358;50.272;19.026;2022-07-23T02:32:49;98299.81;;;20.81;61.48
34081;BME280;20358;50.272;19.026;2022-07-23T02:35:55;98298.16;;;20.80;61.59
34081;BME280;20358;50.272;19.026;2022-07-23T02:39:04;98304.47;;;20.79;61.48
34081;BME280;20358;50.272;19.026;2022-07-23T02:42:13;98301.25;;;20.75;61.58
34081;BME280;20358;50.272;19.026;2022-07-23T02:45:19;98305.22;;;20.71;61.80
34081;BME280;20358;50.272;19.026;2022-07-23T02:48:27;98297.38;;;20.70;62.03
34081;BME280;20358;50.272;19.026;2022-07-23T02:51:34;98290.38;;;20.69;62.07
34081;BME280;20358;50.272;19.026;2022-07-23T02:54:42;98288.56;;;20.69;62.31
34081;BME280;20358;50.272;19.026;2022-07-23T02:57:54;98290.06;;;20.72;62.38
34081;BME280;20358;50.272;19.026;2022-07-23T03:00:59;98281.41;;;20.70;62.58
34081;BME280;20358;50.272;19.026;2022-07-23T03:04:08;98281.41;;;20.70;62.43
34081;BME280;20358;50.272;19.026;2022-07-23T03:07:16;98287.31;;;20.64;62.80
34081;BME280;20358;50.272;19.026;2022-07-23T03:10:23;98279.78;;;20.59;62.84
34081;BME280;20358;50.272;19.026;2022-07-23T03:13:34;98284.56;;;20.56;63.45
34081;BME280;20358;50.272;19.026;2022-07-23T03:16:41;98294.53;;;20.54;63.75
34081;BME280;20358;50.272;19.026;2022-07-23T03:19:47;98290.16;;;20.53;63.82
34081;BME280;20358;50.272;19.026;2022-07-23T03:22:53;98291.00;;;20.53;64.03
34081;BME280;20358;50.272;19.026;2022-07-23T03:25:59;98290.84;;;20.55;64.25
34081;BME280;20358;50.272;19.026;2022-07-23T03:29:08;98284.38;;;20.57;64.26
34081;BME280;20358;50.272;19.026;2022-07-23T03:32:14;98294.91;;;20.59;64.25
34081;BME280;20358;50.272;19.026;2022-07-23T03:35:20;98288.75;;;20.58;64.41
34081;BME280;20358;50.272;19.026;2022-07-23T03:38:42;98275.28;;;20.60;64.87
34081;BME280;20358;50.272;19.026;2022-07-23T03:41:49;98283.97;;;20.62;64.79
34081;BME280;20358;50.272;19.026;2022-07-23T03:44:57;98284.38;;;20.67;65.02
34081;BME280;20358;50.272;19.026;2022-07-23T03:48:05;98280.41;;;20.71;65.31
34081;BME280;20358;50.272;19.026;2022-07-23T03:51:10;98281.78;;;20.75;65.88
34081;BME280;20358;50.272;19.026;2022-07-23T03:54:17;98292.84;;;20.80;66.08
34081;BME280;20358;50.272;19.026;2022-07-23T03:57:23;98297.25;;;20.89;65.97
34081;BME280;20358;50.272;19.026;2022-07-23T04:00:32;98296.03;;;21.01;65.86
34081;BME280;20358;50.272;19.026;2022-07-23T04:03:39;98293.47;;;21.09;66.10
34081;BME280;20358;50.272;19.026;2022-07-23T04:06:46;98296.22;;;21.17;66.02
34081;BME280;20358;50.272;19.026;2022-07-23T04:09:52;98303.72;;;21.31;65.89
34081;BME280;20358;50.272;19.026;2022-07-23T04:12:59;98292.84;;;21.42;65.84
34081;BME280;20358;50.272;19.026;2022-07-23T04:16:07;98302.25;;;21.55;65.53
34081;BME280;20358;50.272;19.026;2022-07-23T04:19:14;98301.31;;;21.64;65.42
34081;BME280;20358;50.272;19.026;2022-07-23T04:22:36;98306.41;;;21.75;65.04
34081;BME280;20358;50.272;19.026;2022-07-23T04:25:43;98304.34;;;21.86;64.84
34081;BME280;20358;50.272;19.026;2022-07-23T04:28:49;98300.22;;;21.92;64.21
34081;BME280;20358;50.272;19.026;2022-07-23T04:31:58;98299.53;;;21.90;64.11
34081;BME280;20358;50.272;19.026;2022-07-23T04:35:05;98295.88;;;21.91;64.44
34081;BME280;20358;50.272;19.026;2022-07-23T04:38:12;98295.81;;;22.00;64.31
34081;BME280;20358;50.272;19.026;2022-07-23T04:41:19;98289.84;;;22.07;64.29
34081;BME280;20358;50.272;19.026;2022-07-23T04:44:26;98295.06;;;22.16;63.50
34081;BME280;20358;50.272;19.026;2022-07-23T04:47:35;98292.75;;;22.21;63.06
34081;BME280;20358;50.272;19.026;2022-07-23T04:50:41;98289.09;;;22.22;63.30
34081;BME280;20358;50.272;19.026;2022-07-23T04:53:56;98288.78;;;22.25;62.96
34081;BME280;20358;50.272;19.026;2022-07-23T04:57:05;98295.47;;;22.29;62.78
34081;BME280;20358;50.272;19.026;2022-07-23T05:00:11;98298.19;;;22.37;62.79
34081;BME280;20358;50.272;19.026;2022-07-23T05:03:21;98292.00;;;22.37;63.13
34081;BME280;20358;50.272;19.026;2022-07-23T05:06:27;98289.50;;;22.35;63.44
34081;BME280;20358;50.272;19.026;2022-07-23T05:09:34;98282.78;;;22.31;63.79
34081;BME280;20358;50.272;19.026;2022-07-23T05:12:39;98292.00;;;22.37;64.15
34081;BME280;20358;50.272;19.026;2022-07-23T05:15:46;98287.56;;;22.45;64.09
34081;BME280;20358;50.272;19.026;2022-07-23T05:18:54;98286.44;;;22.56;63.49
34081;BME280;20358;50.272;19.026;2022-07-23T05:22:03;98295.63;;;22.61;63.52
34081;BME280;20358;50.272;19.026;2022-07-23T05:25:09;98298.03;;;22.73;63.59
34081;BME280;20358;50.272;19.026;2022-07-23T05:28:15;98287.72;;;22.86;62.87
34081;BME280;20358;50.272;19.026;2022-07-23T05:31:25;98283.28;;;23.02;62.49
34081;BME280;20358;50.272;19.026;2022-07-23T05:34:34;98283.78;;;23.14;62.61
34081;BME280;20358;50.272;19.026;2022-07-23T05:37:40;98284.00;;;23.28;61.95
34081;BME280;20358;50.272;19.026;2022-07-23T05:40:46;98280.84;;;23.41;61.86
34081;BME280;20358;50.272;19.026;2022-07-23T05:43:53;98286.53;;;23.46;61.69
34081;BME280;20358;50.272;19.026;2022-07-23T05:47:01;98280.69;;;23.59;61.69
34081;BME280;20358;50.272;19.026;2022-07-23T05:50:10;98278.84;;;23.67;61.59
34081;BME280;20358;50.272;19.026;2022-07-23T05:53:21;98269.31;;;23.81;61.02
34081;BME280;20358;50.272;19.026;2022-07-23T05:56:38;98268.94;;;23.92;60.48
34081;BME280;20358;50.272;19.026;2022-07-23T05:59:45;98257.59;;;24.06;60.67
34081;BME280;20358;50.272;19.026;2022-07-23T06:02:50;98261.41;;;24.20;60.36
34081;BME280;20358;50.272;19.026;2022-07-23T06:06:02;98251.31;;;24.38;60.10
34081;BME280;20358;50.272;19.026;2022-07-23T06:09:07;98255.25;;;24.50;59.19
34081;BME280;20358;50.272;19.026;2022-07-23T06:12:18;98241.66;;;24.60;59.00
34081;BME280;20358;50.272;19.026;2022-07-23T06:15:23;98231.06;;;24.66;58.22
34081;BME280;20358;50.272;19.026;2022-07-23T06:18:30;98231.38;;;24.71;58.10
34081;BME280;20358;50.272;19.026;2022-07-23T06:21:39;98227.00;;;24.78;58.54
34081;BME280;20358;50.272;19.026;2022-07-23T06:24:50;98229.94;;;24.91;58.31
34081;BME280;20358;50.272;19.026;2022-07-23T06:27:56;98232.53;;;25.07;58.42
34081;BME280;20358;50.272;19.026;2022-07-23T06:31:03;98226.47;;;25.14;57.74
34081;BME280;20358;50.272;19.026;2022-07-23T06:34:08;98225.72;;;25.20;57.90
34081;BME280;20358;50.272;19.026;2022-07-23T06:37:18;98224.31;;;25.32;57.75
34081;BME280;20358;50.272;19.026;2022-07-23T06:40:23;98228.63;;;25.41;57.55
34081;BME280;20358;50.272;19.026;2022-07-23T06:43:30;98230.41;;;25.48;57.25
34081;BME280;20358;50.272;19.026;2022-07-23T06:46:35;98240.22;;;25.56;57.77
34081;BME280;20358;50.272;19.026;2022-07-23T06:49:42;98238.78;;;25.68;57.12
34081;BME280;20358;50.272;19.026;2022-07-23T06:52:51;98234.28;;;25.83;57.33
34081;BME280;20358;50.272;19.026;2022-07-23T06:55:57;98239.84;;;25.96;56.90
34081;BME280;20358;50.272;19.026;2022-07-23T06:59:04;98236.34;;;26.10;55.79
34081;BME280;20358;50.272;19.026;2022-07-23T07:02:10;98243.59;;;26.24;55.26
34081;BME280;20358;50.272;19.026;2022-07-23T07:05:16;98243.41;;;26.41;55.17
34081;BME280;20358;50.272;19.026;2022-07-23T07:08:25;98237.75;;;26.50;54.80
34081;BME280;20358;50.272;19.026;2022-07-23T07:11:31;98231.94;;;26.61;53.66
34081;BME280;20358;50.272;19.026;2022-07-23T07:14:37;98224.84;;;26.75;54.02
34081;BME280;20358;50.272;19.026;2022-07-23T07:17:43;98225.28;;;26.78;54.25
34081;BME280;20358;50.272;19.026;2022-07-23T07:20:50;98227.31;;;26.91;53.70
34081;BME280;20358;50.272;19.026;2022-07-23T07:24:00;98236.16;;;27.06;53.72
34081;BME280;20358;50.272;19.026;2022-07-23T07:27:07;98236.88;;;27.15;53.42
34081;BME280;20358;50.272;19.026;2022-07-23T07:30:13;98229.53;;;27.23;52.55
34081;BME280;20358;50.272;19.026;2022-07-23T07:33:19;98227.53;;;27.32;52.49
34081;BME280;20358;50.272;19.026;2022-07-23T07:36:25;98239.38;;;27.37;52.30
34081;BME280;20358;50.272;19.026;2022-07-23T07:39:35;98245.94;;;27.49;52.08
34081;BME280;20358;50.272;19.026;2022-07-23T07:42:50;98248.75;;;27.63;51.46
34081;BME280;20358;50.272;19.026;2022-07-23T07:45:57;98243.19;;;27.71;51.16
34081;BME280;20358;50.272;19.026;2022-07-23T07:49:04;98254.22;;;27.76;50.85
34081;BME280;20358;50.272;19.026;2022-07-23T07:52:17;98245.41;;;27.82;50.41
34081;BME280;20358;50.272;19.026;2022-07-23T07:55:26;98251.28;;;27.92;50.44
34081;BME280;20358;50.272;19.026;2022-07-23T07:58:34;98255.69;;;27.99;49.88
34081;BME280;20358;50.272;19.026;2022-07-23T08:01:39;98253.03;;;28.06;50.10
34081;BME280;20358;50.272;19.026;2022-07-23T08:04:46;98255.19;;;28.17;50.04
34081;BME280;20358;50.272;19.026;2022-07-23T08:07:52;98252.31;;;28.25;48.71
34081;BME280;20358;50.272;19.026;2022-07-23T08:11:01;98243.66;;;28.30;49.61
34081;BME280;20358;50.272;19.026;2022-07-23T08:14:07;98236.19;;;28.32;49.12
34081;BME280;20358;50.272;19.026;2022-07-23T08:17:14;98223.22;;;28.42;49.25
34081;BME280;20358;50.272;19.026;2022-07-23T08:20:21;98214.75;;;28.51;49.23
34081;BME280;20358;50.272;19.026;2022-07-23T08:23:31;98220.16;;;28.51;48.14
34081;BME280;20358;50.272;19.026;2022-07-23T08:26:40;98213.69;;;28.46;47.64
34081;BME280;20358;50.272;19.026;2022-07-23T08:29:46;98200.03;;;28.47;48.19
34081;BME280;20358;50.272;19.026;2022-07-23T08:32:54;98191.56;;;28.50;47.95
34081;BME280;20358;50.272;19.026;2022-07-23T08:36:00;98194.88;;;28.52;47.05
34081;BME280;20358;50.272;19.026;2022-07-23T08:39:07;98188.69;;;28.58;47.78
34081;BME280;20358;50.272;19.026;2022-07-23T08:42:16;98200.72;;;28.62;47.00
34081;BME280;20358;50.272;19.026;2022-07-23T08:45:23;98200.28;;;28.59;46.27
34081;BME280;20358;50.272;19.026;2022-07-23T08:48:30;98206.91;;;28.56;46.60
34081;BME280;20358;50.272;19.026;2022-07-23T08:51:37;98206.50;;;28.59;46.92
34081;BME280;20358;50.272;19.026;2022-07-23T08:54:44;98200.75;;;28.69;46.49
34081;BME280;20358;50.272;19.026;2022-07-23T08:57:52;98194.75;;;28.74;46.07
34081;BME280;20358;50.272;19.026;2022-07-23T09:01:00;98202.44;;;28.77;46.12
34081;BME280;20358;50.272;19.026;2022-07-23T09:04:07;98205.75;;;28.79;44.59
34081;BME280;20358;50.272;19.026;2022-07-23T09:07:13;98209.50;;;28.91;45.03
34081;BME280;20358;50.272;19.026;2022-07-23T09:10:19;98207.44;;;28.93;44.23
34081;BME280;20358;50.272;19.026;2022-07-23T09:13:37;98210.19;;;28.99;43.90
34081;BME280;20358;50.272;19.026;2022-07-23T09:16:44;98218.28;;;29.06;44.06
34081;BME280;20358;50.272;19.026;2022-07-23T09:19:51;98213.53;;;29.21;43.43
34081;BME280;20358;50.272;19.026;2022-07-23T09:22:57;98211.69;;;29.35;43.50
34081;BME280;20358;50.272;19.026;2022-07-23T09:26:33;98200.28;;;29.39;41.68
34081;BME280;20358;50.272;19.026;2022-07-23T09:29:55;98200.91;;;29.48;41.81
34081;BME280;20358;50.272;19.026;2022-07-23T09:33:04;98206.34;;;29.54;42.05
34081;BME280;20358;50.272;19.026;2022-07-23T09:36:10;98218.78;;;29.55;42.29
34081;BME280;20358;50.272;19.026;2022-07-23T09:39:24;98213.00;;;29.52;42.59
34081;BME280;20358;50.272;19.026;2022-07-23T09:42:30;98202.41;;;29.57;43.19
34081;BME280;20358;50.272;19.026;2022-07-23T09:45:39;98201.34;;;29.77;42.91
34081;BME280;20358;50.272;19.026;2022-07-23T09:48:45;98203.81;;;29.92;42.14
34081;BME280;20358;50.272;19.026;2022-07-23T09:51:53;98190.53;;;29.90;42.09
34081;BME280;20358;50.272;19.026;2022-07-23T09:55:00;98200.06;;;30.13;42.15
34081;BME280;20358;50.272;19.026;2022-07-23T09:58:08;98202.94;;;30.31;40.08
34081;BME280;20358;50.272;19.026;2022-07-23T10:01:17;98197.66;;;30.49;40.65
34081;BME280;20358;50.272;19.026;2022-07-23T10:04:26;98195.97;;;30.61;40.82
34081;BME280;20358;50.272;19.026;2022-07-23T10:07:59;98184.84;;;30.82;40.57
34081;BME280;20358;50.272;19.026;2022-07-23T10:11:27;98183.47;;;31.04;40.47
34081;BME280;20358;50.272;19.026;2022-07-23T10:14:42;98183.25;;;31.13;39.55
34081;BME280;20358;50.272;19.026;2022-07-23T10:17:52;98186.56;;;31.39;39.09
34081;BME280;20358;50.272;19.026;2022-07-23T10:20:59;98188.97;;;31.54;39.12
34081;BME280;20358;50.272;19.026;2022-07-23T10:24:16;98181.00;;;31.59;39.25
34081;BME280;20358;50.272;19.026;2022-07-23T10:27:54;98172.03;;;31.34;39.44
34081;BME280;20358;50.272;19.026;2022-07-23T10:31:09;98176.66;;;31.27;39.74
34081;BME280;20358;50.272;19.026;2022-07-23T10:34:48;98175.81;;;31.33;39.14
34081;BME280;20358;50.272;19.026;2022-07-23T10:38:01;98176.47;;;31.28;38.80
34081;BME280;20358;50.272;19.026;2022-07-23T10:41:07;98171.66;;;31.30;39.58
34081;BME280;20358;50.272;19.026;2022-07-23T10:44:17;98164.03;;;31.21;39.17
34081;BME280;20358;50.272;19.026;2022-07-23T10:47:27;98160.09;;;31.17;39.03
34081;BME280;20358;50.272;19.026;2022-07-23T10:51:12;98167.22;;;31.04;37.73
34081;BME280;20358;50.272;19.026;2022-07-23T10:54:21;98163.13;;;30.95;38.27
34081;BME280;20358;50.272;19.026;2022-07-23T10:57:28;98158.03;;;31.05;37.61
34081;BME280;20358;50.272;19.026;2022-07-23T11:00:34;98155.09;;;31.14;38.56
34081;BME280;20358;50.272;19.026;2022-07-23T11:03:55;98150.50;;;31.21;37.60
34081;BME280;20358;50.272;19.026;2022-07-23T11:07:11;98153.63;;;31.18;37.19
34081;BME280;20358;50.272;19.026;2022-07-23T11:10:33;98148.47;;;31.09;37.69
34081;BME280;20358;50.272;19.026;2022-07-23T11:13:42;98144.50;;;31.05;37.64
34081;BME280;20358;50.272;19.026;2022-07-23T11:16:48;98136.06;;;30.95;37.80
34081;BME280;20358;50.272;19.026;2022-07-23T11:20:19;98136.88;;;30.96;38.64
34081;BME280;20358;50.272;19.026;2022-07-23T11:23:59;98134.41;;;30.94;38.17
34081;BME280;20358;50.272;19.026;2022-07-23T11:27:06;98128.53;;;30.97;38.10
34081;BME280;20358;50.272;19.026;2022-07-23T11:30:39;98132.25;;;31.03;37.85
34081;BME280;20358;50.272;19.026;2022-07-23T11:33:45;98121.81;;;31.06;38.54
34081;BME280;20358;50.272;19.026;2022-07-23T11:36:52;98116.94;;;31.22;38.19
34081;BME280;20358;50.272;19.026;2022-07-23T11:40:02;98119.09;;;31.38;38.49
34081;BME280;20358;50.272;19.026;2022-07-23T11:43:10;98121.41;;;31.34;38.52
34081;BME280;20358;50.272;19.026;2022-07-23T11:46:17;98105.84;;;31.30;38.54
34081;BME280;20358;50.272;19.026;2022-07-23T11:49:23;98106.28;;;31.27;38.77
34081;BME280;20358;50.272;19.026;2022-07-23T11:52:29;98100.97;;;31.38;38.63
34081;BME280;20358;50.272;19.026;2022-07-23T11:55:39;98096.47;;;31.50;38.58
34081;BME280;20358;50.272;19.026;2022-07-23T11:58:55;98100.41;;;31.54;38.14
34081;BME280;20358;50.272;19.026;2022-07-23T12:02:05;98100.75;;;31.64;38.13
34081;BME280;20358;50.272;19.026;2022-07-23T12:05:12;98098.41;;;31.68;38.26
34081;BME280;20358;50.272;19.026;2022-07-23T12:08:19;98089.69;;;31.84;37.77
34081;BME280;20358;50.272;19.026;2022-07-23T12:11:27;98092.69;;;31.76;37.79
34081;BME280;20358;50.272;19.026;2022-07-23T12:14:47;98083.69;;;31.82;37.23
34081;BME280;20358;50.272;19.026;2022-07-23T12:17:53;98089.94;;;31.83;37.25
34081;BME280;20358;50.272;19.026;2022-07-23T12:21:04;98078.13;;;31.95;37.17
34081;BME280;20358;50.272;19.026;2022-07-23T12:24:11;98075.41;;;31.95;36.68
34081;BME280;20358;50.272;19.026;2022-07-23T12:27:20;98065.16;;;31.97;36.30
34081;BME280;20358;50.272;19.026;2022-07-23T12:30:28;98063.34;;;31.91;36.54
34081;BME280;20358;50.272;19.026;2022-07-23T12:33:38;98070.97;;;31.83;36.69
34081;BME280;20358;50.272;19.026;2022-07-23T12:36:45;98062.75;;;31.89;36.61
34081;BME280;20358;50.272;19.026;2022-07-23T12:39:53;98052.66;;;31.96;35.71
34081;BME280;20358;50.272;19.026;2022-07-23T12:43:04;98054.03;;;31.87;36.50
34081;BME280;20358;50.272;19.026;2022-07-23T12:46:13;98043.63;;;31.84;36.73
34081;BME280;20358;50.272;19.026;2022-07-23T12:49:27;98041.53;;;31.86;36.79
34081;BME280;20358;50.272;19.026;2022-07-23T12:52:34;98034.63;;;31.72;36.80
34081;BME280;20358;50.272;19.026;2022-07-23T12:55:40;98052.59;;;31.66;36.45
34081;BME280;20358;50.272;19.026;2022-07-23T12:59:10;98053.69;;;31.59;36.48
34081;BME280;20358;50.272;19.026;2022-07-23T13:02:20;98047.50;;;31.52;37.13
34081;BME280;20358;50.272;19.026;2022-07-23T13:05:26;98046.53;;;31.46;36.36
34081;BME280;20358;50.272;19.026;2022-07-23T13:08:33;98044.78;;;31.52;36.89
34081;BME280;20358;50.272;19.026;2022-07-23T13:11:40;98037.91;;;31.74;37.45
34081;BME280;20358;50.272;19.026;2022-07-23T13:14:48;98038.19;;;32.02;37.20
34081;BME280;20358;50.272;19.026;2022-07-23T13:17:54;98036.91;;;32.23;36.68
34081;BME280;20358;50.272;19.026;2022-07-23T13:21:03;98032.59;;;32.34;36.31
34081;BME280;20358;50.272;19.026;2022-07-23T13:24:11;98038.94;;;32.27;36.45
34081;BME280;20358;50.272;19.026;2022-07-23T13:27:17;98030.19;;;32.25;36.10
34081;BME280;20358;50.272;19.026;2022-07-23T13:30:26;98018.63;;;32.18;36.29
34081;BME280;20358;50.272;19.026;2022-07-23T13:33:32;98021.09;;;32.20;36.13
34081;BME280;20358;50.272;19.026;2022-07-23T13:36:39;98010.38;;;32.25;36.74
34081;BME280;20358;50.272;19.026;2022-07-23T13:39:45;98002.94;;;32.20;36.46
34081;BME280;20358;50.272;19.026;2022-07-23T13:42:55;98007.47;;;32.08;36.75
34081;BME280;20358;50.272;19.026;2022-07-23T13:46:05;98019.22;;;32.02;36.73
34081;BME280;20358;50.272;19.026;2022-07-23T13:49:11;98021.22;;;31.77;37.05
34081;BME280;20358;50.272;19.026;2022-07-23T13:52:17;98050.38;;;31.57;37.23
34081;BME280;20358;50.272;19.026;2022-07-23T13:55:23;98084.47;;;30.90;43.20
34081;BME280;20358;50.272;19.026;2022-07-23T13:58:29;98079.63;;;29.46;46.51
34081;BME280;20358;50.272;19.026;2022-07-23T14:01:38;98075.69;;;28.16;47.23
34081;BME280;20358;50.272;19.026;2022-07-23T14:05:05;98060.31;;;27.28;50.03
34081;BME280;20358;50.272;19.026;2022-07-23T14:08:13;98048.47;;;27.02;52.29
34081;BME280;20358;50.272;19.026;2022-07-23T14:11:18;98051.84;;;27.10;55.50
34081;BME280;20358;50.272;19.026;2022-07-23T14:14:27;98060.41;;;27.20;51.83
34081;BME280;20358;50.272;19.026;2022-07-23T14:17:36;98100.06;;;27.12;52.77
34081;BME280;20358;50.272;19.026;2022-07-23T14:20:45;98096.41;;;26.98;52.03
34081;BME280;20358;50.272;19.026;2022-07-23T14:23:50;98100.47;;;26.87;51.68
34081;BME280;20358;50.272;19.026;2022-07-23T14:26:59;98122.75;;;26.81;51.77
34081;BME280;20358;50.272;19.026;2022-07-23T14:30:08;98130.69;;;26.68;51.76
34081;BME280;20358;50.272;19.026;2022-07-23T14:33:18;98122.53;;;26.62;52.81
34081;BME280;20358;50.272;19.026;2022-07-23T14:36:27;98119.13;;;26.53;53.03
34081;BME280;20358;50.272;19.026;2022-07-23T14:39:34;98134.00;;;26.35;53.46
34081;BME280;20358;50.272;19.026;2022-07-23T14:42:40;98133.63;;;26.23;53.25
34081;BME280;20358;50.272;19.026;2022-07-23T14:45:47;98126.25;;;26.25;53.45
34081;BME280;20358;50.272;19.026;2022-07-23T14:48:55;98133.94;;;26.13;54.31
34081;BME280;20358;50.272;19.026;2022-07-23T14:52:04;98124.13;;;25.91;54.60
34081;BME280;20358;50.272;19.026;2022-07-23T14:55:09;98139.84;;;25.94;55.00
34081;BME280;20358;50.272;19.026;2022-07-23T14:58:17;98138.84;;;26.24;54.35
34081;BME280;20358;50.272;19.026;2022-07-23T15:01:22;98106.41;;;26.62;53.04
34081;BME280;20358;50.272;19.026;2022-07-23T15:04:32;98133.94;;;26.85;52.57
34081;BME280;20358;50.272;19.026;2022-07-23T15:07:39;98121.53;;;26.84;52.33
34081;BME280;20358;50.272;19.026;2022-07-23T15:10:46;98112.59;;;26.77;52.61
34081;BME280;20358;50.272;19.026;2022-07-23T15:13:52;98118.84;;;26.63;53.49
34081;BME280;20358;50.272;19.026;2022-07-23T15:16:58;98108.81;;;26.57;53.54
34081;BME280;20358;50.272;19.026;2022-07-23T15:20:08;98101.03;;;26.62;53.73
34081;BME280;20358;50.272;19.026;2022-07-23T15:23:19;98110.56;;;26.64;53.53
34081;BME280;20358;50.272;19.026;2022-07-23T15:26:27;98106.31;;;26.55;53.53
34081;BME280;20358;50.272;19.026;2022-07-23T15:29:34;98100.81;;;26.42;53.73
34081;BME280;20358;50.272;19.026;2022-07-23T15:32:42;98114.56;;;26.33;53.86
34081;BME280;20358;50.272;19.026;2022-07-23T15:35:51;98112.44;;;26.13;55.44
34081;BME280;20358;50.272;19.026;2022-07-23T15:38:58;98127.72;;;25.98;54.31
34081;BME280;20358;50.272;19.026;2022-07-23T15:42:05;98103.94;;;25.95;54.91
34081;BME280;20358;50.272;19.026;2022-07-23T15:45:16;98117.44;;;25.87;55.38
34081;BME280;20358;50.272;19.026;2022-07-23T15:48:22;98108.66;;;25.79;55.21
34081;BME280;20358;50.272;19.026;2022-07-23T15:51:31;98112.91;;;25.88;55.28
34081;BME280;20358;50.272;19.026;2022-07-23T15:54:38;98112.91;;;25.88;55.42
34081;BME280;20358;50.272;19.026;2022-07-23T15:57:44;98108.38;;;25.88;55.50
34081;BME280;20358;50.272;19.026;2022-07-23T16:00:52;98116.81;;;25.85;56.12
34081;BME280;20358;50.272;19.026;2022-07-23T16:03:59;98105.88;;;25.87;55.23
34081;BME280;20358;50.272;19.026;2022-07-23T16:07:08;98109.66;;;25.92;55.54
34081;BME280;20358;50.272;19.026;2022-07-23T16:10:16;98110.59;;;25.99;54.96
34081;BME280;20358;50.272;19.026;2022-07-23T16:13:24;98107.25;;;25.97;55.60
34081;BME280;20358;50.272;19.026;2022-07-23T16:16:30;98111.44;;;26.00;55.36
34081;BME280;20358;50.272;19.026;2022-07-23T16:19:36;98112.91;;;25.88;56.28
34081;BME280;20358;50.272;19.026;2022-07-23T16:22:44;98124.69;;;25.72;55.92
34081;BME280;20358;50.272;19.026;2022-07-23T16:25:51;98116.50;;;25.51;55.93
34081;BME280;20358;50.272;19.026;2022-07-23T16:28:56;98130.00;;;25.43;55.78